createdAt,value
2018-06-02T09:56:32.626Z,94.10
2018-06-02T09:57:32.599Z,95.06
2018-06-02T09:58:32.585Z,94.87
2018-06-02T09:59:32.568Z,92.12
2018-06-02T10:00:32.572Z,95.36
2018-06-02T10:01:32.547Z,93.57
2018-06-02T10:02:32.528Z,95.02
2018-06-02T10:03:32.515Z,94.06
2018-06-02T10:04:32.502Z,95.98
2018-06-02T10:05:32.488Z,96.37
2018-06-02T10:06:32.487Z,95.06
2018-06-02T10:07:32.464Z,94.78
2018-06-02T10:08:32.452Z,96.61
2018-06-02T10:09:32.439Z,94.43
2018-06-02T10:10:32.428Z,92.12
2018-06-02T10:11:32.425Z,95.64
2018-06-02T10:12:32.402Z,93.90
2018-06-02T10:13:32.389Z,93.52
2018-06-02T10:14:32.377Z,95.11
2018-06-02T10:15:32.369Z,93.23
2018-06-02T10:16:32.367Z,94.29
2018-06-02T10:17:32.355Z,93.57
2018-06-02T10:18:32.335Z,94.87
2018-06-02T10:19:32.318Z,94.15
2018-06-02T10:20:32.307Z,90.63
2018-06-02T10:21:32.300Z,95.89
2018-06-02T10:22:32.293Z,95.40
2018-06-02T10:23:32.272Z,94.53
2018-06-02T10:24:32.260Z,93.66
2018-06-02T10:25:32.247Z,94.63
2018-06-02T10:26:32.235Z,94.15
2018-06-02T10:27:32.244Z,93.08
2018-06-02T10:28:32.214Z,92.70
2018-06-02T10:29:32.206Z,95.40
2018-06-02T10:30:32.191Z,97.33
2018-06-02T10:31:32.180Z,93.62
2018-06-02T10:32:32.169Z,95.88
2018-06-02T10:33:32.165Z,92.41
2018-06-02T10:34:32.145Z,93.80
2018-06-02T10:35:32.200Z,95.68
2018-06-02T10:36:32.124Z,87.61
2018-06-02T10:37:32.143Z,90.22
2018-06-02T10:38:32.282Z,91.67
2018-06-02T10:39:32.093Z,90.99
2018-06-02T10:40:32.081Z,91.09
2018-06-02T10:41:32.065Z,92.98
2018-06-02T10:42:32.070Z,90.90
2018-06-02T10:43:32.058Z,92.54
2018-06-02T10:44:32.038Z,91.09
2018-06-02T10:45:32.024Z,90.90
2018-06-02T10:46:32.018Z,88.34
2018-06-02T10:47:32.004Z,91.92
2018-06-02T10:48:32.008Z,92.93
2018-06-02T10:49:31.982Z,91.39
2018-06-02T10:50:31.972Z,92.88
2018-06-02T10:51:31.960Z,89.78
2018-06-02T10:52:31.953Z,93.17
2018-06-02T10:53:31.939Z,90.03
2018-06-02T10:54:31.943Z,90.94
2018-06-02T10:55:31.922Z,93.17
2018-06-02T10:56:31.911Z,91.77
2018-06-02T10:57:31.901Z,91.92
2018-06-02T10:58:31.889Z,92.69
2018-06-02T10:59:31.893Z,92.98
2018-06-02T11:00:31.869Z,91.92
2018-06-02T11:01:31.857Z,92.69
2018-06-02T11:02:31.847Z,91.68
2018-06-02T11:03:31.836Z,92.36
2018-06-02T11:04:31.827Z,93.80
2018-06-02T11:05:31.825Z,92.55
2018-06-02T11:06:31.807Z,93.90
2018-06-02T11:07:31.795Z,93.23
2018-06-02T11:08:31.783Z,91.88
2018-06-02T11:09:31.772Z,93.76
2018-06-02T11:10:31.778Z,91.39
2018-06-02T11:11:31.754Z,92.02
2018-06-02T11:12:31.743Z,92.55
2018-06-02T11:13:31.734Z,92.41
2018-06-02T11:14:31.720Z,92.94
2018-06-02T11:15:31.726Z,92.02
2018-06-02T11:16:31.699Z,91.88
2018-06-02T11:17:31.692Z,91.68
2018-06-02T11:18:31.677Z,93.56
2018-06-02T11:19:31.734Z,92.60
2018-06-02T11:20:31.675Z,92.36
2018-06-02T11:21:31.644Z,94.20
2018-06-02T11:22:31.634Z,93.13
2018-06-02T11:23:31.624Z,91.49
2018-06-02T11:24:31.615Z,92.84
2018-06-02T11:25:31.616Z,92.07
2018-06-02T11:26:31.650Z,91.59
2018-06-02T11:27:31.580Z,92.36
2018-06-02T11:28:31.570Z,91.39
2018-06-02T11:29:31.560Z,90.81
2018-06-02T11:30:31.552Z,91.54
2018-06-02T11:31:31.560Z,91.97
2018-06-02T11:32:31.530Z,90.23
2018-06-02T11:33:31.512Z,90.28
2018-06-02T11:34:31.504Z,91.20
2018-06-02T11:35:31.493Z,92.55
2018-06-02T11:36:31.483Z,93.04
2018-06-02T11:37:31.488Z,93.90
2018-06-02T11:38:31.458Z,92.74
2018-06-02T11:39:31.450Z,90.77
2018-06-02T11:40:31.440Z,91.73
2018-06-02T11:41:31.429Z,91.35
2018-06-02T11:42:31.435Z,91.63
2018-06-02T11:43:31.406Z,91.39
2018-06-02T11:44:31.397Z,89.35
2018-06-02T11:45:31.384Z,87.51
2018-06-02T11:46:31.377Z,86.87
2018-06-02T11:47:31.373Z,86.00
2018-06-02T11:48:31.354Z,88.23
2018-06-02T11:49:31.342Z,88.67
2018-06-02T11:50:31.332Z,89.40
2018-06-02T11:51:31.321Z,89.94
2018-06-02T11:52:31.347Z,92.55
2018-06-02T11:53:31.300Z,92.55
2018-06-02T11:54:31.288Z,92.50
2018-06-02T11:55:31.278Z,91.83
2018-06-02T11:56:31.272Z,92.02
2018-06-02T11:57:31.259Z,91.53
2018-06-02T11:58:31.504Z,91.83
2018-06-02T11:59:31.236Z,92.32
2018-06-02T12:00:31.224Z,92.36
2018-06-02T12:01:31.216Z,92.16
2018-06-02T12:02:31.209Z,92.50
2018-06-02T12:03:31.196Z,93.08
2018-06-02T12:04:31.194Z,90.71
2018-06-02T12:05:31.183Z,91.77
2018-06-02T12:06:31.162Z,90.86
2018-06-02T12:07:31.151Z,91.53
2018-06-02T12:08:31.140Z,88.93
2018-06-02T12:09:31.142Z,92.07
2018-06-02T12:10:31.117Z,92.46
2018-06-02T12:11:31.107Z,91.39
2018-06-02T12:12:31.098Z,91.53
2018-06-02T12:13:31.084Z,91.39
2018-06-02T12:14:31.087Z,90.67
2018-06-02T12:15:31.065Z,89.70
2018-06-02T12:16:31.055Z,91.15
2018-06-02T12:17:31.041Z,90.62
2018-06-02T12:18:31.032Z,92.36
2018-06-02T12:19:31.031Z,91.97
2018-06-02T12:20:31.017Z,90.23
2018-06-02T12:21:30.998Z,92.26
2018-06-02T12:22:30.988Z,92.46
2018-06-02T12:23:30.976Z,92.74
2018-06-02T12:24:30.981Z,92.41
2018-06-02T12:25:30.954Z,92.32
2018-06-02T12:26:30.943Z,92.99
2018-06-02T12:27:30.933Z,93.23
2018-06-02T12:28:30.970Z,92.65
2018-06-02T12:29:30.909Z,92.26
2018-06-02T12:30:30.919Z,92.07
2018-06-02T12:31:30.889Z,92.36
2018-06-02T12:32:30.878Z,92.46
2018-06-02T12:33:30.867Z,92.16
2018-06-02T12:34:30.853Z,92.07
2018-06-02T12:35:30.843Z,91.30
2018-06-02T12:36:30.843Z,90.47
2018-06-02T12:37:30.821Z,93.18
2018-06-02T12:38:30.810Z,90.91
2018-06-02T12:39:30.800Z,90.77
2018-06-02T12:40:30.789Z,91.14
2018-06-02T12:41:30.787Z,88.95
2018-06-02T12:42:30.765Z,87.41
2018-06-02T12:43:30.756Z,85.77
2018-06-02T12:44:30.747Z,87.71
2018-06-02T12:45:30.736Z,86.60
2018-06-02T12:46:30.735Z,87.71
2018-06-02T12:47:30.713Z,88.39
2018-06-02T12:48:30.705Z,87.76
2018-06-02T12:49:30.691Z,88.78
2018-06-02T12:50:30.681Z,89.26
2018-06-02T12:51:30.670Z,90.47
2018-06-02T12:52:30.671Z,89.12
2018-06-02T12:53:30.650Z,89.51
2018-06-02T12:54:30.640Z,90.03
2018-06-02T12:55:30.629Z,89.51
2018-06-02T12:56:30.871Z,90.19
2018-06-02T12:57:30.606Z,89.37
2018-06-02T12:58:30.598Z,90.91
2018-06-02T12:59:30.587Z,90.05
2018-06-02T13:00:30.573Z,89.26
2018-06-02T13:01:30.565Z,88.92
2018-06-02T13:02:30.827Z,89.11
2018-06-02T13:03:30.546Z,87.32
2018-06-02T13:04:30.534Z,85.82
2018-06-02T13:05:30.523Z,77.92
2018-06-02T13:06:30.513Z,75.96
2018-06-02T13:07:30.501Z,79.60
2018-06-02T13:08:30.501Z,76.79
2018-06-02T13:09:30.487Z,77.44
2018-06-02T13:10:30.469Z,82.91
2018-06-02T13:11:30.459Z,87.71
2018-06-02T13:12:30.452Z,89.61
2018-06-02T13:13:30.449Z,89.70
2018-06-02T13:14:30.460Z,89.51
2018-06-02T13:15:30.421Z,89.27
2018-06-02T13:16:30.408Z,90.62
2018-06-02T13:17:30.397Z,89.95
2018-06-02T13:18:30.397Z,90.86
2018-06-02T13:19:30.376Z,89.79
2018-06-02T13:20:30.365Z,88.25
2018-06-02T13:21:30.355Z,87.58
2018-06-02T13:22:30.344Z,88.73
2018-06-02T13:23:30.352Z,88.93
2018-06-02T13:24:30.325Z,89.17
2018-06-02T13:25:30.313Z,88.78
2018-06-02T13:26:30.306Z,87.67
2018-06-02T13:27:30.287Z,87.87
2018-06-02T13:28:30.280Z,88.45
2018-06-02T13:29:30.279Z,88.54
2018-06-02T13:30:30.258Z,88.54
2018-06-02T13:31:30.249Z,87.29
2018-06-02T13:32:30.239Z,87.91
2018-06-02T13:33:30.226Z,87.76
2018-06-02T13:34:30.230Z,86.69
2018-06-02T13:35:30.206Z,86.60
2018-06-02T13:36:30.195Z,84.57
2018-06-02T13:37:30.185Z,84.38
2018-06-02T13:38:30.175Z,86.31
2018-06-02T13:39:30.164Z,85.78
2018-06-02T13:40:30.163Z,85.59
2018-06-02T13:41:30.143Z,87.43
2018-06-02T13:42:30.132Z,86.71
2018-06-02T13:43:30.123Z,86.56
2018-06-02T13:44:30.115Z,84.68
2018-06-02T13:45:30.109Z,84.05
2018-06-02T13:46:30.092Z,83.66
2018-06-02T13:47:30.083Z,84.05
2018-06-02T13:48:30.068Z,81.67
2018-06-02T13:49:30.061Z,78.13
2018-06-02T13:50:30.090Z,80.55
2018-06-02T13:51:30.110Z,76.55
2018-06-02T13:52:30.057Z,78.67
2018-06-02T13:53:30.055Z,82.20
2018-06-02T13:54:30.010Z,81.52
2018-06-02T13:55:30.098Z,78.91
2018-06-02T13:56:32.280Z,80.40
2018-06-02T13:57:29.993Z,81.04
2018-06-02T13:58:29.996Z,79.00
2018-06-02T13:59:30.042Z,80.84
2018-06-02T14:00:29.987Z,83.94
2018-06-02T14:01:29.998Z,84.52
2018-06-02T14:02:30.003Z,84.72
2018-06-02T14:03:29.965Z,85.69
2018-06-02T14:04:30.770Z,86.36
2018-06-02T14:05:31.269Z,86.07
2018-06-02T14:06:30.070Z,84.05
2018-06-02T14:07:29.904Z,82.83
2018-06-02T14:08:30.782Z,79.89
2018-06-02T14:09:30.123Z,81.57
2018-06-02T14:10:35.190Z,81.71
2018-06-02T14:11:29.890Z,81.30
2018-06-02T14:12:29.901Z,80.84
2018-06-02T14:13:31.729Z,81.42
2018-06-02T14:15:29.798Z,80.73
2018-06-02T14:16:29.784Z,80.59
2018-06-02T14:17:29.788Z,79.52
2018-06-02T14:18:29.835Z,77.84
2018-06-02T14:19:29.754Z,75.67
2018-06-02T14:20:29.744Z,74.54
2018-06-02T14:21:29.735Z,79.16
2018-06-02T14:22:29.756Z,77.34
2018-06-02T14:23:29.712Z,77.82
2018-06-02T14:24:29.706Z,74.32
2018-06-02T14:25:51.922Z,69.41
2018-06-02T14:26:33.312Z,65.98
2018-06-02T14:27:30.436Z,70.11
2018-06-02T14:28:30.813Z,70.34
2018-06-02T14:29:29.705Z,64.40
2018-06-02T14:30:29.753Z,64.98
2018-06-02T14:31:29.642Z,65.98
2018-06-02T14:32:29.638Z,61.58
2018-06-02T14:33:29.645Z,63.13
2018-06-02T14:34:46.779Z,61.29
2018-06-02T14:35:34.774Z,64.98
2018-06-02T14:36:32.810Z,71.24
2018-06-02T14:37:29.704Z,77.17
2018-06-02T14:38:30.293Z,77.20
2018-06-02T14:39:31.296Z,71.89
2018-06-02T14:40:32.776Z,72.28
2018-06-02T14:41:29.819Z,68.18
2018-06-02T14:42:29.558Z,65.85
2018-06-02T14:43:30.023Z,68.05
2018-06-02T14:44:29.796Z,69.95
2018-06-02T14:45:29.671Z,68.24
2018-06-02T14:46:30.780Z,73.04
2018-06-02T14:47:29.583Z,76.89
2018-06-02T14:48:33.808Z,74.60
2018-06-02T14:49:29.596Z,65.66
2018-06-02T14:50:29.490Z,67.27
2018-06-02T14:51:29.482Z,69.67
2018-06-02T14:52:29.476Z,69.18
2018-06-02T14:53:29.465Z,69.76
2018-06-02T14:54:29.472Z,64.82
2018-06-02T14:55:29.450Z,69.41
2018-06-02T14:56:29.444Z,73.64
2018-06-02T14:57:29.436Z,73.73
2018-06-02T14:58:29.428Z,71.96
2018-06-02T14:59:29.421Z,63.42
2018-06-02T15:00:29.424Z,62.32
2018-06-02T15:01:29.406Z,64.78
2018-06-02T15:02:29.397Z,60.80
2018-06-02T15:03:29.391Z,56.26
2018-06-02T15:04:29.383Z,59.58
2018-06-02T15:05:29.389Z,64.27
2018-06-02T15:06:29.369Z,67.60
2018-06-02T15:07:29.363Z,69.53
2018-06-02T15:08:29.356Z,74.42
2018-06-02T15:09:29.348Z,78.96
2018-06-02T15:10:29.352Z,80.47
2018-06-02T15:11:29.333Z,82.69
2018-06-02T15:12:29.326Z,80.99
2018-06-02T15:13:29.316Z,79.25
2018-06-02T15:14:29.312Z,81.19
2018-06-02T15:15:29.570Z,83.03
2018-06-02T15:16:29.294Z,83.70
2018-06-02T15:17:29.283Z,82.83
2018-06-02T15:18:29.276Z,81.48
2018-06-02T15:19:29.266Z,82.31
2018-06-02T15:20:29.257Z,85.49
2018-06-02T15:21:29.257Z,83.23
2018-06-02T15:22:29.244Z,84.88
2018-06-02T15:23:29.231Z,86.42
2018-06-02T15:24:29.221Z,86.61
2018-06-02T15:25:29.211Z,86.71
2018-06-02T15:26:29.220Z,85.94
2018-06-02T15:27:29.194Z,84.16
2018-06-02T15:28:29.184Z,83.91
2018-06-02T15:29:29.173Z,83.33
2018-06-02T15:30:29.163Z,80.95
2018-06-02T15:31:29.152Z,80.80
2018-06-02T15:32:29.155Z,82.50
2018-06-02T15:33:29.132Z,83.72
2018-06-02T15:34:29.123Z,84.58
2018-06-02T15:35:29.115Z,84.97
2018-06-02T15:36:29.102Z,86.80
2018-06-02T15:37:29.101Z,84.97
2018-06-02T15:38:29.088Z,83.52
2018-06-02T15:39:29.073Z,84.78
2018-06-02T15:40:29.062Z,87.15
2018-06-02T15:41:29.052Z,85.26
2018-06-02T15:42:29.053Z,85.02
2018-06-02T15:43:29.031Z,84.58
2018-06-02T15:44:29.021Z,84.24
2018-06-02T15:45:29.013Z,83.47
2018-06-02T15:46:28.999Z,83.85
2018-06-02T15:47:29.004Z,82.69
2018-06-02T15:48:28.977Z,84.05
2018-06-02T15:49:28.965Z,84.48
2018-06-02T15:50:28.961Z,84.78
2018-06-02T15:51:28.945Z,86.22
2018-06-02T15:52:28.936Z,84.35
2018-06-02T15:53:28.935Z,86.03
2018-06-02T15:54:28.914Z,85.74
2018-06-02T15:55:28.902Z,84.97
2018-06-02T15:56:28.891Z,86.18
2018-06-02T15:57:28.880Z,86.52
2018-06-02T15:58:28.883Z,87.48
2018-06-02T15:59:28.863Z,87.96
2018-06-02T16:00:28.847Z,87.19
2018-06-02T16:01:28.836Z,87.34
2018-06-02T16:02:28.825Z,87.15
2018-06-02T16:03:28.851Z,87.73
2018-06-02T16:04:28.813Z,88.02
2018-06-02T16:05:28.791Z,87.15
2018-06-02T16:06:28.783Z,88.11
2018-06-02T16:07:28.768Z,88.21
2018-06-02T16:08:28.759Z,89.13
2018-06-02T16:09:28.756Z,89.37
2018-06-02T16:10:28.735Z,88.79
2018-06-02T16:11:28.723Z,88.64
2018-06-02T16:12:28.713Z,87.87
2018-06-02T16:13:28.701Z,86.22
2018-06-02T16:14:28.704Z,84.63
2018-06-02T16:15:28.679Z,83.31
2018-06-02T16:16:28.667Z,82.54
2018-06-02T16:17:28.654Z,83.22
2018-06-02T16:18:28.644Z,84.13
2018-06-02T16:19:28.635Z,84.14
2018-06-02T16:20:28.634Z,85.30
2018-06-02T16:21:28.611Z,85.11
2018-06-02T16:22:28.601Z,85.06
2018-06-02T16:23:28.599Z,84.63
2018-06-02T16:24:28.579Z,85.30
2018-06-02T16:25:28.615Z,84.63
2018-06-02T16:26:28.556Z,83.26
2018-06-02T16:27:28.545Z,76.28
2018-06-02T16:28:28.535Z,80.26
2018-06-02T16:29:28.523Z,80.32
2018-06-02T16:30:28.516Z,80.86
2018-06-02T16:31:28.516Z,79.41
2018-06-02T16:32:28.492Z,81.44
2018-06-02T16:33:28.481Z,83.56
2018-06-02T16:34:28.476Z,83.66
2018-06-02T16:35:28.460Z,83.89
2018-06-02T16:36:28.490Z,83.37
2018-06-02T16:37:28.439Z,84.82
2018-06-02T16:38:28.428Z,84.00
2018-06-02T16:39:28.418Z,82.94
2018-06-02T16:40:28.408Z,76.10
2018-06-02T16:41:28.409Z,76.20
2018-06-02T16:42:28.386Z,77.65
2018-06-02T16:43:28.376Z,78.48
2018-06-02T16:44:28.367Z,78.25
2018-06-02T16:45:28.357Z,77.96
2018-06-02T16:46:28.362Z,78.34
2018-06-02T16:47:28.335Z,78.64
2018-06-02T16:48:28.325Z,77.80
2018-06-02T16:49:28.315Z,67.88
2018-06-02T16:50:28.303Z,67.33
2018-06-02T16:51:28.295Z,71.04
2018-06-02T16:52:28.295Z,74.00
2018-06-02T16:53:28.275Z,77.00
2018-06-02T16:54:28.264Z,74.13
2018-06-02T16:55:28.260Z,79.45
2018-06-02T16:56:28.245Z,77.48
2018-06-02T16:57:28.243Z,76.64
2018-06-02T16:58:28.224Z,75.75
2018-06-02T16:59:28.213Z,73.10
2018-06-02T17:00:28.204Z,71.34
2018-06-02T17:01:28.193Z,75.04
2018-06-02T17:02:28.199Z,74.13
2018-06-02T17:03:28.174Z,78.92
2018-06-02T17:04:28.170Z,81.34
2018-06-02T17:05:28.156Z,78.67
2018-06-02T17:06:28.144Z,78.52
2018-06-02T17:07:28.134Z,81.29
2018-06-02T17:08:28.142Z,81.82
2018-06-02T17:09:28.115Z,83.03
2018-06-02T17:10:28.104Z,76.70
2018-06-02T17:11:28.096Z,70.73
2018-06-02T17:12:28.086Z,72.05
2018-06-02T17:13:28.094Z,76.08
2018-06-02T17:14:28.067Z,77.36
2018-06-02T17:15:28.055Z,79.64
2018-06-02T17:16:28.048Z,81.13
2018-06-02T17:17:28.040Z,76.86
2018-06-02T17:18:28.045Z,73.04
2018-06-02T17:19:28.025Z,73.53
2018-06-02T17:20:28.028Z,71.44
2018-06-02T17:21:28.006Z,67.60
2018-06-02T17:22:27.993Z,64.04
2018-06-02T17:23:27.985Z,63.17
2018-06-02T17:24:27.989Z,64.37
2018-06-02T17:25:27.969Z,65.89
2018-06-02T17:26:27.961Z,63.91
2018-06-02T17:27:27.955Z,67.88
2018-06-02T17:28:27.945Z,71.20
2018-06-02T17:29:27.950Z,75.97
2018-06-02T17:30:27.931Z,81.30
2018-06-02T17:31:27.924Z,84.25
2018-06-02T17:32:27.915Z,85.80
2018-06-02T17:33:27.908Z,87.78
2018-06-02T17:34:27.912Z,88.22
2018-06-02T17:35:27.895Z,88.51
2018-06-02T17:36:27.884Z,88.31
2018-06-02T17:37:27.873Z,88.41
2018-06-02T17:38:27.865Z,88.56
2018-06-02T17:39:28.426Z,88.31
2018-06-02T17:40:28.388Z,85.99
2018-06-02T17:41:28.406Z,81.13
2018-06-02T17:42:27.867Z,76.91
2018-06-02T17:43:29.346Z,72.40
2018-06-02T17:44:27.996Z,72.56
2018-06-02T17:45:27.903Z,72.08
2018-06-02T17:46:27.847Z,70.86
2018-06-02T17:47:28.346Z,68.95
2018-06-02T17:48:27.816Z,67.66
2018-06-02T17:49:28.372Z,66.69
2018-06-02T17:50:28.860Z,69.05
2018-06-02T17:51:27.890Z,73.30
2018-06-02T17:52:28.347Z,75.75
2018-06-02T17:53:29.343Z,76.14
2018-06-02T17:54:27.847Z,78.38
2018-06-02T17:55:28.447Z,83.67
2018-06-02T17:56:28.419Z,87.30
2018-06-02T17:57:27.848Z,88.12
2018-06-02T17:58:27.793Z,88.99
2018-06-02T17:59:27.682Z,89.76
2018-06-02T18:00:27.678Z,88.89
2018-06-02T18:01:27.676Z,90.68
2018-06-02T18:02:27.906Z,90.58
2018-06-02T18:03:28.872Z,91.45
2018-06-02T18:04:28.596Z,91.41
2018-06-02T18:05:28.369Z,91.89
2018-06-02T18:06:27.871Z,92.37
2018-06-02T18:07:27.751Z,91.69
2018-06-02T18:08:29.357Z,92.27
2018-06-02T18:09:27.802Z,92.08
2018-06-02T18:10:28.532Z,92.03
2018-06-02T18:11:27.662Z,92.52
2018-06-02T18:12:27.623Z,92.61
2018-06-02T18:13:27.730Z,92.52
2018-06-02T18:14:28.869Z,93.19
2018-06-02T18:15:28.416Z,92.71
2018-06-02T18:16:32.355Z,92.90
2018-06-02T18:17:28.559Z,92.52
2018-06-02T18:18:27.600Z,92.80
2018-06-02T18:19:27.468Z,92.61
2018-06-02T18:20:27.463Z,92.22
2018-06-02T18:21:27.448Z,92.38
2018-06-02T18:22:27.450Z,92.76
2018-06-02T18:23:27.421Z,92.76
2018-06-02T18:24:27.414Z,92.47
2018-06-02T18:25:27.401Z,92.57
2018-06-02T18:26:27.401Z,92.57
2018-06-02T18:27:27.397Z,93.15
2018-06-02T18:28:27.364Z,93.15
2018-06-02T18:29:27.351Z,92.76
2018-06-02T18:30:27.341Z,93.15
2018-06-02T18:31:27.328Z,92.71
2018-06-02T18:32:27.325Z,92.91
2018-06-02T18:33:27.301Z,93.29
2018-06-02T18:34:27.290Z,93.19
2018-06-02T18:35:27.276Z,93.19
2018-06-02T18:36:27.305Z,93.19
2018-06-02T18:37:27.251Z,92.43
2018-06-02T18:38:27.255Z,93.10
2018-06-02T18:39:27.224Z,93.10
2018-06-02T18:40:27.213Z,93.00
2018-06-02T18:41:27.199Z,93.10
2018-06-02T18:42:27.196Z,93.10
2018-06-02T18:43:27.174Z,93.38
2018-06-02T18:44:27.161Z,93.87
2018-06-02T18:45:27.146Z,93.58
2018-06-02T18:46:27.134Z,93.19
2018-06-02T18:47:27.142Z,94.06
2018-06-02T18:48:27.109Z,93.68
2018-06-02T18:49:27.098Z,93.10
2018-06-02T18:50:27.082Z,94.06
2018-06-02T18:51:27.072Z,93.48
2018-06-02T18:52:27.061Z,93.00
2018-06-02T18:53:27.062Z,93.10
2018-06-02T18:54:27.034Z,93.29
2018-06-02T18:55:27.019Z,93.10
2018-06-02T18:56:27.004Z,93.19
2018-06-02T18:57:26.991Z,93.44
2018-06-02T18:58:26.990Z,93.63
2018-06-02T18:59:26.961Z,93.29
2018-06-02T19:00:26.952Z,93.44
2018-06-02T19:01:26.934Z,93.53
2018-06-02T19:02:26.923Z,93.44
2018-06-02T19:03:26.917Z,93.24
2018-06-02T19:04:26.896Z,93.53
2018-06-02T19:05:26.889Z,93.73
2018-06-02T19:06:26.868Z,93.34
2018-06-02T19:07:26.900Z,94.21
2018-06-02T19:08:27.096Z,93.91
2018-06-02T19:09:26.828Z,94.01
2018-06-02T19:10:26.813Z,93.91
2018-06-02T19:11:26.801Z,93.82
2018-06-02T19:12:26.788Z,94.21
2018-06-02T19:13:26.775Z,94.21
2018-06-02T19:14:26.770Z,94.11
2018-06-02T19:15:26.755Z,94.40
2018-06-02T19:16:26.733Z,93.77
2018-06-02T19:17:26.717Z,93.96
2018-06-02T19:18:26.706Z,93.63
2018-06-02T19:19:26.705Z,93.87
2018-06-02T19:20:26.681Z,94.35
2018-06-02T19:21:26.663Z,94.26
2018-06-02T19:22:26.649Z,93.87
2018-06-02T19:23:26.635Z,94.16
2018-06-02T19:24:26.643Z,94.16
2018-06-02T19:25:26.609Z,93.77
2018-06-02T19:26:26.595Z,94.49
2018-06-02T19:27:26.581Z,94.78
2018-06-02T19:28:26.568Z,94.69
2018-06-02T19:29:26.822Z,94.31
2018-06-02T19:30:26.543Z,94.31
2018-06-02T19:31:26.526Z,94.59
2018-06-02T19:32:26.511Z,94.49
2018-06-02T19:33:26.496Z,94.31
2018-06-02T19:34:26.487Z,94.78
2018-06-02T19:35:26.533Z,94.49
2018-06-02T19:36:26.456Z,93.20
2018-06-02T19:37:26.439Z,93.87
2018-06-02T19:38:26.429Z,94.16
2018-06-02T19:39:26.415Z,93.97
2018-06-02T19:40:26.412Z,93.97
2018-06-02T19:41:26.382Z,93.87
2018-06-02T19:42:26.370Z,93.59
2018-06-02T19:43:26.359Z,94.26
2018-06-02T19:44:26.344Z,93.20
2018-06-02T19:45:26.340Z,93.87
2018-06-02T19:46:26.313Z,93.10
2018-06-02T19:47:26.300Z,93.20
2018-06-02T19:48:26.286Z,93.77
2018-06-02T19:49:26.270Z,93.30
2018-06-02T19:50:26.257Z,94.07
2018-06-02T19:51:26.257Z,93.06
2018-06-02T19:52:26.221Z,93.54
2018-06-02T19:53:26.212Z,93.63
2018-06-02T19:54:26.199Z,93.63
2018-06-02T19:55:26.185Z,93.54
2018-06-02T19:56:26.180Z,93.15
2018-06-02T19:57:26.158Z,93.15
2018-06-02T19:58:26.142Z,92.24
2018-06-02T19:59:26.126Z,92.54
2018-06-02T20:00:26.112Z,92.44
2018-06-02T20:01:26.159Z,92.63
2018-06-02T20:02:26.083Z,91.86
2018-06-02T20:03:26.071Z,91.48
2018-06-02T20:04:26.055Z,92.05
2018-06-02T20:05:26.039Z,91.67
2018-06-02T20:06:26.301Z,91.57
2018-06-02T20:07:26.011Z,90.90
2018-06-02T20:08:25.997Z,91.77
2018-06-02T20:09:25.980Z,91.57
2018-06-02T20:10:25.973Z,91.28
2018-06-02T20:11:25.952Z,91.19
2018-06-02T20:12:25.948Z,91.48
2018-06-02T20:13:25.921Z,91.48
2018-06-02T20:14:25.909Z,91.48
2018-06-02T20:15:25.894Z,90.67
2018-06-02T20:16:25.882Z,91.05
2018-06-02T20:17:25.872Z,90.76
2018-06-02T20:18:25.848Z,90.67
2018-06-02T20:19:25.832Z,90.19
2018-06-02T20:20:25.822Z,89.61
2018-06-02T20:21:25.804Z,89.51
2018-06-02T20:22:25.800Z,89.32
2018-06-02T20:23:25.778Z,89.28
2018-06-02T20:24:25.758Z,89.28
2018-06-02T20:25:25.742Z,88.70
2018-06-02T20:26:25.730Z,88.51
2018-06-02T20:27:25.725Z,88.32
2018-06-02T20:28:25.699Z,88.03
2018-06-02T20:29:25.688Z,88.42
2018-06-02T20:30:25.668Z,88.51
2018-06-02T20:31:25.656Z,87.94
2018-06-02T20:32:25.658Z,87.46
2018-06-02T20:33:25.624Z,87.27
2018-06-02T20:34:25.609Z,87.55
2018-06-02T20:35:25.595Z,87.37
2018-06-02T20:36:25.580Z,87.37
2018-06-02T20:37:25.563Z,87.55
2018-06-02T20:38:25.557Z,87.84
2018-06-02T20:39:25.533Z,87.84
2018-06-02T20:40:25.519Z,88.03
2018-06-02T20:41:25.504Z,88.03
2018-06-02T20:42:25.529Z,87.84
2018-06-02T20:43:25.482Z,88.13
2018-06-02T20:44:25.471Z,87.46
2018-06-02T20:45:25.441Z,87.27
2018-06-02T20:46:25.427Z,86.98
2018-06-02T20:47:25.412Z,86.50
2018-06-02T20:48:25.674Z,86.65
2018-06-02T20:49:25.379Z,86.55
2018-06-02T20:50:25.366Z,86.55
2018-06-02T20:51:25.350Z,86.12
2018-06-02T20:52:25.335Z,86.50
2018-06-02T20:53:25.320Z,85.88
2018-06-02T20:54:25.318Z,85.88
2018-06-02T20:55:25.290Z,85.60
2018-06-02T20:56:25.274Z,85.69
2018-06-02T20:57:25.262Z,85.79
2018-06-02T20:58:25.252Z,85.69
2018-06-02T20:59:25.228Z,85.69
2018-06-02T21:00:25.214Z,85.69
2018-06-02T21:01:25.198Z,85.88
2018-06-02T21:02:25.181Z,86.08
2018-06-02T21:03:25.182Z,85.88
2018-06-02T21:04:25.151Z,85.88
2018-06-02T21:05:25.135Z,85.60
2018-06-02T21:06:25.120Z,85.98
2018-06-02T21:07:25.103Z,85.69
2018-06-02T21:08:25.090Z,85.69
2018-06-02T21:09:25.084Z,85.31
2018-06-02T21:10:25.058Z,85.31
2018-06-02T21:11:25.044Z,85.31
2018-06-02T21:12:25.028Z,85.12
2018-06-02T21:13:25.017Z,85.41
2018-06-02T21:14:25.005Z,84.83
2018-06-02T21:15:24.981Z,85.60
2018-06-02T21:16:24.971Z,84.74
2018-06-02T21:17:24.948Z,85.41
2018-06-02T21:18:24.935Z,84.64
2018-06-02T21:19:24.929Z,85.60
2018-06-02T21:20:24.903Z,84.83
2018-06-02T21:21:24.886Z,84.64
2018-06-02T21:22:24.871Z,85.41
2018-06-02T21:23:24.856Z,84.92
2018-06-02T21:24:24.879Z,85.41
2018-06-02T21:25:24.825Z,85.41
2018-06-02T21:26:24.808Z,84.83
2018-06-02T21:27:24.794Z,85.79
2018-06-02T21:28:24.780Z,85.21
2018-06-02T21:29:24.762Z,85.25
2018-06-02T21:30:24.756Z,85.41
2018-06-02T21:31:24.731Z,85.69
2018-06-02T21:32:24.716Z,85.41
2018-06-02T21:33:24.701Z,85.79
2018-06-02T21:34:24.684Z,85.93
2018-06-02T21:35:24.678Z,85.54
2018-06-02T21:36:24.668Z,85.74
2018-06-02T21:37:24.637Z,85.93
2018-06-02T21:38:24.622Z,85.83
2018-06-02T21:39:24.608Z,85.64
2018-06-02T21:40:24.649Z,85.25
2018-06-02T21:41:24.573Z,85.45
2018-06-02T21:42:24.575Z,85.06
2018-06-02T21:43:24.564Z,85.35
2018-06-02T21:44:24.534Z,85.35
2018-06-02T21:45:24.546Z,85.35
2018-06-02T21:46:24.519Z,84.97
2018-06-02T21:47:24.491Z,85.45
2018-06-02T21:48:24.472Z,84.97
2018-06-02T21:49:24.504Z,85.45
2018-06-02T21:50:24.445Z,84.97
2018-06-02T21:51:24.457Z,85.41
2018-06-02T21:52:24.407Z,84.83
2018-06-02T21:53:24.389Z,85.16
2018-06-02T21:54:24.380Z,84.74
2018-06-02T21:55:24.391Z,84.83
2018-06-02T21:56:24.387Z,84.83
2018-06-02T21:57:24.325Z,84.74
2018-06-02T21:58:24.321Z,84.97
2018-06-02T21:59:24.297Z,85.21
2018-06-02T22:00:24.283Z,85.12
2018-06-02T22:01:24.264Z,85.21
2018-06-02T22:02:24.265Z,84.26
2018-06-02T22:03:24.234Z,84.45
2018-06-02T22:04:24.218Z,84.16
2018-06-02T22:05:24.227Z,84.45
2018-06-02T22:06:24.193Z,84.26
2018-06-02T22:07:24.185Z,84.26
2018-06-02T22:08:24.156Z,84.35
2018-06-02T22:09:24.150Z,84.35
2018-06-02T22:10:24.128Z,84.26
2018-06-02T22:11:24.106Z,84.35
2018-06-02T22:12:24.112Z,85.02
2018-06-02T22:13:24.080Z,85.12
2018-06-02T22:14:24.111Z,85.06
2018-06-02T22:15:24.052Z,84.30
2018-06-02T22:16:24.026Z,84.16
2018-06-02T22:17:24.039Z,84.30
2018-06-02T22:18:24.002Z,84.20
2018-06-02T22:19:23.988Z,84.97
2018-06-02T22:20:23.970Z,84.39
2018-06-02T22:21:23.949Z,84.64
2018-06-02T22:22:23.933Z,84.88
2018-06-02T22:23:23.927Z,85.35
2018-06-02T22:24:23.909Z,84.97
2018-06-02T22:25:23.926Z,85.25
2018-06-02T22:26:23.880Z,85.25
2018-06-02T22:27:23.861Z,84.97
2018-06-02T22:28:23.857Z,85.35
2018-06-02T22:29:23.834Z,84.97
2018-06-02T22:30:23.810Z,85.45
2018-06-02T22:31:23.817Z,85.25
2018-06-02T22:32:23.786Z,85.16
2018-06-02T22:33:23.781Z,85.16
2018-06-02T22:34:23.750Z,85.35
2018-06-02T22:35:23.735Z,85.54
2018-06-02T22:36:23.718Z,85.35
2018-06-02T22:37:23.746Z,85.45
2018-06-02T22:38:23.803Z,85.83
2018-06-02T22:39:23.673Z,85.74
2018-06-02T22:40:23.652Z,85.93
2018-06-02T22:41:23.639Z,86.02
2018-06-02T22:42:23.639Z,85.54
2018-06-02T22:43:23.604Z,86.41
2018-06-02T22:44:23.601Z,86.12
2018-06-02T22:45:23.574Z,86.31
2018-06-02T22:46:23.559Z,85.93
2018-06-02T22:47:23.563Z,85.93
2018-06-02T22:48:23.528Z,85.93
2018-06-02T22:49:23.521Z,85.93